createdAt,value
2019-04-05T00:00:32.600Z,37.30
2019-04-05T00:03:01.573Z,36.00
2019-04-05T00:05:31.314Z,35.80
2019-04-05T00:08:00.772Z,35.70
2019-04-05T00:10:30.319Z,37.20
2019-04-05T00:12:59.861Z,38.07
2019-04-05T00:15:32.409Z,37.20
2019-04-05T00:18:01.949Z,36.60
2019-04-05T00:20:31.491Z,35.00
2019-04-05T00:23:01.025Z,36.53
2019-04-05T00:25:31.170Z,34.37
2019-04-05T00:28:00.701Z,34.43
2019-04-05T00:30:30.248Z,35.27
2019-04-05T00:32:59.772Z,34.57
2019-04-05T00:35:29.720Z,33.83
2019-04-05T00:37:59.181Z,33.20
2019-04-05T00:40:28.655Z,35.40
2019-04-05T00:42:58.198Z,36.87
2019-04-05T00:45:28.789Z,33.87
2019-04-05T00:47:58.547Z,36.23
2019-04-05T00:50:28.101Z,39.00
2019-04-05T00:52:57.621Z,38.83
2019-04-05T00:55:27.467Z,37.67
2019-04-05T00:57:56.928Z,38.70
2019-04-05T01:00:26.464Z,36.70
2019-04-05T01:02:56.012Z,38.47
2019-04-05T01:05:25.546Z,39.47
2019-04-05T01:07:55.747Z,41.00
2019-04-05T01:10:25.285Z,39.03
2019-04-05T01:12:55.301Z,42.03
2019-04-05T01:15:24.843Z,41.57
2019-04-05T01:17:55.251Z,38.30
2019-04-05T01:20:28.052Z,39.00
2019-04-05T01:22:59.997Z,38.73
2019-04-05T01:25:30.663Z,40.20
2019-04-05T01:28:00.648Z,44.73
2019-04-05T01:30:30.285Z,43.90
2019-04-05T01:33:00.323Z,43.03
2019-04-05T01:35:30.130Z,42.63
2019-04-05T01:38:00.100Z,42.97
2019-04-05T01:40:32.554Z,40.33
2019-04-05T01:43:02.160Z,41.00
2019-04-05T01:45:31.775Z,41.53
2019-04-05T01:48:01.403Z,42.37
2019-04-05T01:50:31.418Z,39.60
2019-04-05T01:53:01.007Z,38.27
2019-04-05T01:55:30.539Z,43.90
2019-04-05T01:58:00.952Z,42.80
2019-04-05T02:00:30.558Z,41.60
2019-04-05T02:03:00.158Z,40.27
2019-04-05T02:05:29.774Z,40.57
2019-04-05T02:07:59.717Z,40.80
2019-04-05T02:10:29.252Z,42.77
2019-04-05T02:12:58.795Z,40.90
2019-04-05T02:15:31.406Z,39.93
2019-04-05T02:18:00.880Z,44.13
2019-04-05T02:20:30.413Z,41.20
2019-04-05T02:23:00.120Z,43.70
2019-04-05T02:25:29.644Z,41.90
2019-04-05T02:27:59.177Z,39.47
2019-04-05T02:30:28.836Z,41.87
2019-04-05T02:32:58.315Z,43.47
2019-04-05T02:35:33.596Z,40.43
2019-04-05T02:38:03.384Z,44.07
2019-04-05T02:40:36.225Z,40.73
2019-04-05T02:43:07.629Z,42.67
2019-04-05T02:45:39.512Z,41.00
2019-04-05T02:48:11.329Z,43.47
2019-04-05T02:50:44.057Z,46.50
2019-04-05T02:53:15.800Z,44.40
2019-04-05T02:55:46.207Z,46.30
2019-04-05T02:58:16.776Z,45.27
2019-04-05T03:00:47.569Z,44.30
2019-04-05T03:03:17.407Z,50.07
2019-04-05T03:05:47.587Z,45.77
2019-04-05T03:08:18.191Z,49.57
2019-04-05T03:11:05.694Z,48.83
2019-04-05T03:13:38.348Z,52.77
2019-04-05T03:16:11.139Z,47.37
2019-04-05T03:18:44.089Z,48.60
2019-04-05T03:21:15.680Z,48.63
2019-04-05T03:23:45.952Z,50.77
2019-04-05T03:26:18.588Z,48.27
2019-04-05T03:28:51.464Z,45.40
2019-04-05T03:31:25.134Z,43.97
2019-04-05T03:33:53.689Z,47.30
2019-04-05T03:36:24.044Z,48.97
2019-04-05T03:38:53.901Z,44.83
2019-04-05T03:41:23.540Z,45.03
2019-04-05T03:43:53.486Z,44.30
2019-04-05T03:46:23.376Z,46.30
2019-04-05T03:48:53.185Z,44.37
2019-04-05T03:51:23.517Z,41.10
2019-04-05T03:53:53.190Z,43.40
2019-04-05T03:56:23.067Z,38.33
2019-04-05T03:58:53.010Z,43.90
2019-04-05T04:01:22.802Z,42.23
2019-04-05T04:03:52.505Z,40.20
2019-04-05T04:06:22.417Z,37.90
2019-04-05T04:08:52.097Z,39.93
2019-04-05T04:11:21.827Z,40.17
2019-04-05T04:13:52.117Z,38.47
2019-04-05T04:16:22.489Z,39.53
2019-04-05T04:18:52.299Z,41.97
2019-04-05T04:21:48.980Z,39.40
2019-04-05T04:24:19.518Z,37.07
2019-04-05T04:26:51.063Z,39.00
2019-04-05T04:29:33.122Z,37.00
2019-04-05T04:32:02.924Z,35.83
2019-04-05T04:34:32.558Z,37.33
2019-04-05T04:37:02.101Z,38.40
2019-04-05T04:39:31.735Z,35.83
2019-04-05T04:42:02.073Z,37.87
2019-04-05T04:44:31.532Z,35.67
2019-04-05T04:47:01.409Z,34.83
2019-04-05T04:49:31.887Z,35.40
2019-04-05T04:52:02.239Z,34.70
2019-04-05T04:54:32.169Z,32.83
2019-04-05T04:57:01.981Z,37.23
2019-04-05T04:59:31.683Z,35.63
2019-04-05T05:02:01.410Z,35.13
2019-04-05T05:04:31.204Z,36.40
2019-04-05T05:07:01.016Z,38.20
2019-04-05T05:09:32.095Z,36.27
2019-04-05T05:12:02.284Z,37.50
2019-04-05T05:14:32.594Z,35.40
2019-04-05T05:17:02.496Z,35.73
2019-04-05T05:19:32.361Z,35.50
2019-04-05T05:22:02.260Z,35.67
2019-04-05T05:24:32.228Z,36.30
2019-04-05T05:27:02.023Z,34.47
2019-04-05T05:29:32.131Z,37.53
2019-04-05T05:32:01.945Z,38.03
2019-04-05T05:34:32.421Z,35.40
2019-04-05T05:37:02.388Z,36.57
2019-04-05T05:39:31.993Z,36.70
2019-04-05T05:42:01.802Z,34.27
2019-04-05T05:44:31.512Z,34.93
2019-04-05T05:47:01.168Z,36.57
2019-04-05T05:49:30.628Z,35.00
2019-04-05T05:52:00.639Z,34.13
2019-04-05T05:54:30.169Z,37.27
2019-04-05T05:56:59.644Z,34.40
2019-04-05T05:59:30.282Z,34.90
2019-04-05T06:02:00.501Z,32.90
2019-04-05T06:04:29.960Z,33.93
2019-04-05T06:06:59.427Z,35.47
2019-04-05T06:09:29.271Z,35.20
2019-04-05T06:11:59.341Z,37.07
2019-04-05T06:14:28.901Z,35.30
2019-04-05T06:16:58.356Z,35.07
2019-04-05T06:19:27.932Z,33.80
2019-04-05T06:21:57.398Z,34.60
2019-04-05T06:24:26.876Z,35.40
2019-04-05T06:26:56.400Z,34.90
2019-04-05T06:29:25.881Z,34.90
2019-04-05T06:31:55.420Z,34.53
2019-04-05T06:34:24.973Z,36.93
2019-04-05T06:36:54.509Z,34.10
2019-04-05T06:39:24.065Z,36.40
2019-04-05T06:41:53.608Z,36.10
2019-04-05T06:44:23.152Z,36.47
2019-04-05T06:46:52.692Z,37.27
2019-04-05T06:49:22.232Z,34.40
2019-04-05T06:51:51.948Z,35.77
2019-04-05T06:54:21.489Z,35.60
2019-04-05T06:56:51.109Z,34.80
2019-04-05T06:59:20.759Z,34.33
2019-04-05T07:01:50.364Z,34.77
2019-04-05T07:04:19.913Z,37.27
2019-04-05T07:06:49.373Z,36.50
2019-04-05T07:09:18.927Z,36.43
2019-04-05T07:11:48.460Z,34.77
2019-04-05T07:14:18.199Z,35.10
2019-04-05T07:16:47.900Z,37.57
2019-04-05T07:19:17.469Z,34.03
2019-04-05T07:21:47.292Z,31.10
2019-04-05T07:24:17.008Z,35.73
2019-04-05T07:26:46.537Z,35.50
2019-04-05T07:29:16.170Z,35.30
2019-04-05T07:31:45.629Z,36.17
2019-04-05T07:34:15.179Z,36.47
2019-04-05T07:36:44.646Z,36.17
2019-04-05T07:39:14.204Z,34.93
2019-04-05T07:41:43.676Z,34.83
2019-04-05T07:44:13.238Z,35.90
2019-04-05T07:46:42.784Z,37.20
2019-04-05T07:49:12.272Z,36.33
2019-04-05T07:51:41.813Z,37.37
2019-04-05T07:54:11.419Z,34.30
2019-04-05T07:56:41.039Z,35.67
2019-04-05T07:59:10.589Z,36.10
2019-04-05T08:01:40.208Z,35.40
2019-04-05T08:04:09.679Z,35.90
2019-04-05T08:06:41.537Z,35.03
2019-04-05T08:09:12.892Z,33.40
2019-04-05T08:11:44.280Z,34.97
2019-04-05T08:14:18.047Z,35.30
2019-04-05T08:16:47.200Z,36.37
2019-04-05T08:19:16.747Z,33.20
2019-04-05T08:21:46.405Z,35.23
2019-04-05T08:24:16.020Z,38.73
2019-04-05T08:26:45.987Z,37.53
2019-04-05T08:29:15.860Z,39.70
2019-04-05T08:31:45.408Z,35.90
2019-04-05T08:34:15.043Z,33.37
2019-04-05T08:36:44.658Z,36.73
2019-04-05T08:39:14.286Z,36.37
2019-04-05T08:41:43.832Z,34.13
2019-04-05T08:44:13.460Z,33.97
2019-04-05T08:46:43.026Z,36.87
2019-04-05T08:49:12.513Z,37.70
2019-04-05T08:51:42.142Z,36.93
2019-04-05T08:54:11.740Z,35.80
2019-04-05T08:56:41.492Z,35.20
2019-04-05T08:59:11.478Z,36.00
2019-04-05T09:01:41.290Z,32.23
2019-04-05T09:04:10.854Z,37.03
2019-04-05T09:06:40.588Z,34.57
2019-04-05T09:09:10.302Z,39.53
2019-04-05T09:11:39.841Z,37.10
2019-04-05T09:14:09.460Z,37.43
2019-04-05T09:16:39.103Z,39.60
2019-04-05T09:19:08.584Z,37.20
2019-04-05T09:21:40.465Z,38.47
2019-04-05T09:24:09.467Z,36.70
2019-04-05T09:26:39.171Z,36.93
2019-04-05T09:29:09.449Z,40.00
2019-04-05T09:31:39.438Z,35.67
2019-04-05T09:34:09.224Z,36.87
2019-04-05T09:36:38.781Z,36.17
2019-04-05T09:39:15.014Z,37.37
2019-04-05T09:41:41.260Z,38.40
2019-04-05T09:44:10.800Z,36.70
2019-04-05T09:46:46.843Z,37.90
2019-04-05T09:49:11.961Z,40.03
2019-04-05T09:51:41.552Z,38.97
2019-04-05T09:54:11.160Z,37.40
2019-04-05T09:56:40.712Z,37.93
2019-04-05T09:59:10.325Z,37.60
2019-04-05T10:01:40.076Z,38.90
2019-04-05T10:04:09.548Z,37.17
2019-04-05T10:06:39.260Z,38.70
2019-04-05T10:09:09.081Z,41.50
2019-04-05T10:11:38.853Z,40.07
2019-04-05T10:14:08.578Z,36.63
2019-04-05T10:16:38.299Z,37.80
2019-04-05T10:19:07.935Z,40.00
2019-04-05T10:21:37.653Z,38.67
2019-04-05T10:24:07.203Z,37.40
2019-04-05T10:26:36.748Z,37.10
2019-04-05T10:29:06.296Z,39.83
2019-04-05T10:31:35.868Z,38.27
2019-04-05T10:34:05.419Z,38.37
2019-04-05T10:36:35.263Z,41.00
2019-04-05T10:39:08.492Z,41.90
2019-04-05T10:41:38.732Z,35.80
2019-04-05T10:44:09.984Z,37.20
2019-04-05T10:46:39.851Z,39.13
2019-04-05T10:49:09.528Z,39.23
2019-04-05T10:51:39.252Z,36.57
2019-04-05T10:54:09.661Z,37.17
2019-04-05T10:56:39.652Z,39.13
2019-04-05T10:59:09.198Z,39.43
2019-04-05T11:01:38.732Z,35.70
2019-04-05T11:04:08.285Z,40.30
2019-04-05T11:06:37.820Z,40.27
2019-04-05T11:09:07.740Z,36.20
2019-04-05T11:11:37.439Z,43.00
2019-04-05T11:14:13.614Z,38.33
2019-04-05T11:16:38.596Z,36.17
2019-04-05T11:19:08.299Z,35.97
2019-04-05T11:21:38.167Z,38.30
2019-04-05T11:24:07.898Z,37.27
2019-04-05T11:26:37.442Z,36.57
2019-04-05T11:29:06.995Z,36.50
2019-04-05T11:31:36.579Z,37.93
2019-04-05T11:34:06.256Z,36.23
2019-04-05T11:36:36.353Z,42.20
2019-04-05T11:39:10.113Z,35.93
2019-04-05T11:41:42.777Z,36.53
2019-04-05T11:44:12.884Z,39.13
2019-04-05T11:46:42.969Z,35.53
2019-04-05T11:49:14.892Z,35.80
2019-04-05T11:51:45.426Z,35.47
2019-04-05T11:54:18.440Z,37.60
2019-04-05T11:56:48.404Z,40.73
2019-04-05T11:59:19.716Z,35.27
2019-04-05T12:01:53.904Z,37.93
2019-04-05T12:04:23.569Z,40.10
2019-04-05T12:07:05.507Z,38.33
2019-04-05T12:09:35.135Z,37.57
2019-04-05T12:12:04.756Z,41.13
2019-04-05T12:14:34.515Z,41.70
2019-04-05T12:17:06.225Z,37.60
2019-04-05T12:19:38.105Z,39.07
2019-04-05T12:22:09.115Z,38.07
2019-04-05T12:24:38.652Z,36.27
2019-04-05T12:27:08.363Z,36.23
2019-04-05T12:29:38.072Z,38.50
2019-04-05T12:32:07.708Z,39.53
2019-04-05T12:34:37.489Z,38.50
2019-04-05T12:37:07.324Z,37.20
2019-04-05T12:39:37.299Z,41.97
2019-04-05T12:42:07.226Z,40.53
2019-04-05T12:44:36.869Z,40.37
2019-04-05T12:47:06.651Z,39.50
2019-04-05T12:49:54.536Z,41.07
2019-04-05T12:52:27.355Z,39.47
2019-04-05T12:54:56.087Z,42.03
2019-04-05T12:57:27.776Z,38.57
2019-04-05T12:59:57.207Z,38.97
2019-04-05T13:02:33.245Z,39.90
2019-04-05T13:04:58.067Z,38.50
2019-04-05T13:07:46.964Z,41.03
2019-04-05T13:10:16.778Z,36.80
2019-04-05T13:12:46.456Z,40.43
2019-04-05T13:15:17.301Z,41.33
2019-04-05T13:17:47.245Z,39.80
2019-04-05T13:20:17.112Z,39.30
2019-04-05T13:22:46.677Z,37.90
2019-04-05T13:25:16.212Z,37.37
2019-04-05T13:27:46.628Z,40.20
2019-04-05T13:30:18.303Z,40.40
2019-04-05T13:32:47.728Z,37.93
2019-04-05T13:35:17.529Z,40.10
2019-04-05T13:37:47.247Z,38.90
2019-04-05T13:40:16.858Z,37.17
2019-04-05T13:42:46.408Z,39.93
2019-04-05T13:45:16.116Z,40.30
2019-04-05T13:47:45.665Z,39.77
2019-04-05T13:50:15.545Z,38.50
2019-04-05T13:52:45.081Z,42.03
2019-04-05T13:55:14.858Z,39.30
2019-04-05T13:57:44.516Z,41.30
2019-04-05T14:00:18.201Z,40.30
2019-04-05T14:02:50.023Z,38.60
2019-04-05T14:05:19.344Z,43.40
2019-04-05T14:07:49.373Z,43.03
2019-04-05T14:10:19.116Z,39.17
2019-04-05T14:12:48.692Z,41.23
2019-04-05T14:15:18.228Z,41.67
2019-04-05T14:17:49.376Z,42.07
2019-04-05T14:20:20.644Z,41.40
2019-04-05T14:22:51.433Z,41.13
2019-04-05T14:25:21.446Z,43.57
2019-04-05T14:27:51.003Z,42.63
2019-04-05T14:30:20.743Z,43.90
2019-04-05T14:32:51.082Z,40.17
2019-04-05T14:35:24.547Z,41.03
2019-04-05T14:37:54.551Z,41.30
2019-04-05T14:40:28.387Z,40.70
2019-04-05T14:42:56.861Z,38.07
2019-04-05T14:45:26.507Z,39.40
2019-04-05T14:47:58.488Z,42.20
2019-04-05T14:50:28.312Z,38.23
2019-04-05T14:53:00.760Z,40.33
2019-04-05T14:55:30.590Z,44.40
2019-04-05T14:58:00.203Z,40.97
2019-04-05T15:00:29.821Z,43.10
2019-04-05T15:02:59.697Z,40.00
2019-04-05T15:05:29.704Z,42.57
2019-04-05T15:08:01.095Z,40.20
2019-04-05T15:10:30.863Z,44.33
2019-04-05T15:13:00.476Z,41.57
2019-04-05T15:15:30.288Z,40.10
2019-04-05T15:18:02.911Z,43.57
2019-04-05T15:20:32.690Z,42.00
2019-04-05T15:23:03.756Z,42.17
2019-04-05T15:25:33.297Z,44.20
2019-04-05T15:28:02.847Z,49.20
2019-04-05T15:30:32.465Z,43.87
2019-04-05T15:33:03.664Z,41.17
2019-04-05T15:35:33.151Z,43.10
2019-04-05T15:38:02.699Z,44.87
2019-04-05T15:40:32.314Z,41.97
2019-04-05T15:43:02.040Z,42.50
2019-04-05T15:45:31.571Z,41.77
2019-04-05T15:48:01.323Z,43.80
2019-04-05T15:50:31.150Z,41.13
2019-04-05T15:53:02.351Z,40.77
2019-04-05T15:55:34.298Z,40.03
2019-04-05T15:58:03.806Z,40.83
2019-04-05T16:00:42.285Z,41.40
2019-04-05T16:03:12.873Z,39.60
2019-04-05T16:05:43.476Z,39.37
2019-04-05T16:08:16.184Z,38.43
2019-04-05T16:10:46.080Z,39.60
2019-04-05T16:13:15.617Z,37.00
2019-04-05T16:15:45.547Z,35.60
2019-04-05T16:18:15.206Z,36.47
2019-04-05T16:20:44.734Z,37.93
2019-04-05T16:23:14.365Z,34.70
2019-04-05T16:25:44.201Z,36.73
2019-04-05T16:28:13.664Z,36.67
2019-04-05T16:30:43.303Z,36.80
2019-04-05T16:33:12.836Z,38.60
2019-04-05T16:35:42.384Z,34.93
2019-04-05T16:38:12.004Z,39.57
2019-04-05T16:40:41.523Z,38.53
2019-04-05T16:43:11.229Z,36.30
2019-04-05T16:45:40.821Z,39.10
2019-04-05T16:48:10.543Z,36.07
2019-04-05T16:50:42.244Z,39.10
2019-04-05T16:53:11.807Z,42.80
2019-04-05T16:55:41.783Z,36.57
2019-04-05T16:58:11.527Z,37.03
2019-04-05T17:00:41.344Z,40.27
2019-04-05T17:03:11.321Z,42.00
2019-04-05T17:05:40.971Z,40.50
2019-04-05T17:08:10.933Z,41.33
2019-04-05T17:10:40.893Z,39.87
2019-04-05T17:13:10.785Z,40.30
2019-04-05T17:15:40.469Z,38.67
2019-04-05T17:18:10.240Z,41.83
2019-04-05T17:20:39.784Z,43.17
2019-04-05T17:23:09.448Z,40.30
2019-04-05T17:25:39.105Z,45.33
2019-04-05T17:28:08.842Z,42.90
2019-04-05T17:30:38.483Z,44.37
2019-04-05T17:33:08.564Z,45.07
2019-04-05T17:35:38.211Z,44.70
2019-04-05T17:38:07.953Z,43.33
2019-04-05T17:40:37.640Z,43.47
2019-04-05T17:43:07.990Z,43.03
2019-04-05T17:45:37.763Z,43.23
2019-04-05T17:48:07.476Z,47.63
2019-04-05T17:50:37.358Z,43.90
2019-04-05T17:53:12.802Z,47.70
2019-04-05T17:55:38.508Z,44.20
2019-04-05T17:58:08.320Z,43.97
2019-04-05T18:00:38.174Z,46.87
2019-04-05T18:03:07.721Z,45.90
2019-04-05T18:05:37.260Z,46.10
2019-04-05T18:08:07.101Z,47.53
2019-04-05T18:10:36.683Z,44.30
2019-04-05T18:13:06.328Z,46.43
2019-04-05T18:15:36.352Z,49.63
2019-04-05T18:18:06.535Z,47.77
2019-04-05T18:20:36.559Z,49.80
2019-04-05T18:23:06.095Z,47.30
2019-04-05T18:25:35.794Z,50.80
2019-04-05T18:28:05.492Z,47.87
2019-04-05T18:30:35.160Z,50.70
2019-04-05T18:33:04.860Z,47.00
2019-04-05T18:35:34.437Z,49.53
2019-04-05T18:38:03.971Z,52.23
2019-04-05T18:40:39.866Z,50.43
2019-04-05T18:43:05.598Z,49.23
2019-04-05T18:45:35.412Z,51.50
2019-04-05T18:48:05.584Z,52.57
2019-04-05T18:50:35.275Z,54.17
2019-04-05T18:53:04.813Z,54.33
2019-04-05T18:55:34.448Z,52.47
2019-04-05T18:58:04.351Z,51.13
2019-04-05T19:00:33.923Z,53.90
2019-04-05T19:03:03.463Z,55.20
2019-04-05T19:05:33.034Z,57.03
2019-04-05T19:08:02.667Z,57.83
2019-04-05T19:10:37.208Z,60.60
2019-04-05T19:13:03.868Z,58.20
2019-04-05T19:15:33.412Z,57.80
2019-04-05T19:18:03.180Z,57.53
2019-04-05T19:20:33.034Z,61.83
2019-04-05T19:23:02.570Z,62.30
2019-04-05T19:25:32.131Z,60.93
2019-04-05T19:28:02.234Z,60.47
2019-04-05T19:50:42.821Z,62.07
2019-04-05T19:53:12.675Z,59.67
2019-04-05T19:55:42.229Z,61.00
2019-04-05T19:58:11.700Z,59.40
2019-04-05T20:00:41.583Z,57.40
2019-04-05T20:03:11.747Z,60.20
2019-04-05T20:05:41.548Z,59.57
2019-04-05T20:08:11.268Z,61.60
2019-04-05T20:10:40.799Z,63.73
2019-04-05T20:13:10.870Z,63.87
2019-04-05T20:15:40.408Z,66.47
2019-04-05T20:18:09.994Z,63.77
2019-04-05T20:20:39.594Z,66.47
2019-04-05T20:23:09.172Z,62.57
2019-04-05T20:25:38.704Z,65.67
2019-04-05T20:28:08.277Z,62.13
2019-04-05T20:30:37.808Z,62.77
2019-04-05T20:33:07.381Z,65.27
2019-04-05T20:35:37.415Z,66.50
2019-04-05T20:38:06.984Z,66.60
2019-04-05T20:40:36.687Z,64.90
2019-04-05T20:43:06.447Z,70.13
2019-04-05T20:45:36.075Z,67.27
2019-04-05T20:48:05.645Z,67.40
2019-04-05T20:50:35.672Z,68.50
2019-04-05T20:53:05.228Z,67.80
2019-04-05T20:55:37.212Z,65.60
2019-04-05T20:58:06.215Z,67.30
2019-04-05T21:00:35.748Z,70.83
2019-04-05T21:03:05.321Z,70.90
2019-04-05T21:05:34.849Z,69.90
2019-04-05T21:08:04.349Z,70.23
2019-04-05T21:10:34.089Z,70.83
2019-04-05T21:13:04.080Z,76.17
2019-04-05T21:15:33.603Z,68.97
2019-04-05T21:18:03.171Z,68.13
2019-04-05T21:20:32.707Z,67.57
2019-04-05T21:23:02.261Z,71.13
2019-04-05T21:25:31.787Z,66.90
2019-04-05T21:28:01.343Z,66.60
2019-04-05T21:30:30.801Z,68.53
2019-04-05T21:33:00.307Z,72.53
2019-04-05T21:35:29.845Z,65.90
2019-04-05T21:37:59.405Z,72.93
2019-04-05T21:40:28.865Z,66.20
2019-04-05T21:42:58.396Z,73.27
2019-04-05T21:45:27.953Z,70.27
2019-04-05T21:47:57.488Z,65.20
2019-04-05T21:50:27.120Z,70.00
2019-04-05T21:52:56.584Z,66.43
2019-04-05T21:55:26.224Z,67.80
2019-04-05T21:57:55.835Z,71.17
2019-04-05T22:00:28.543Z,68.37
2019-04-05T22:02:58.324Z,66.30
2019-04-05T22:05:29.707Z,64.30
2019-04-05T22:07:59.253Z,67.27
2019-04-05T22:10:29.184Z,68.87
2019-04-05T22:12:59.053Z,67.77
2019-04-05T22:15:28.633Z,63.73
2019-04-05T22:17:58.273Z,61.57
2019-04-05T22:20:27.804Z,70.10
2019-04-05T22:22:57.424Z,65.17
2019-04-05T22:25:27.151Z,64.67
2019-04-05T22:27:56.691Z,70.90
2019-04-05T22:30:26.363Z,71.70
2019-04-05T22:32:56.006Z,71.30
2019-04-05T22:35:25.476Z,68.00
2019-04-05T22:37:55.188Z,72.73
2019-04-05T22:40:24.736Z,71.23
2019-04-05T22:42:54.280Z,73.20
2019-04-05T22:45:23.824Z,76.30
2019-04-05T22:47:53.358Z,69.40
2019-04-05T22:50:22.904Z,67.43
2019-04-05T22:52:52.373Z,73.70
2019-04-05T22:55:21.989Z,66.30
2019-04-05T22:57:51.528Z,62.70
2019-04-05T23:00:21.241Z,64.70
2019-04-05T23:02:50.820Z,64.13
2019-04-05T23:05:20.379Z,62.27
2019-04-05T23:07:49.909Z,70.17
2019-04-05T23:10:19.457Z,71.07
2019-04-05T23:12:48.999Z,68.00
2019-04-05T23:15:18.543Z,70.43
2019-04-05T23:17:48.181Z,72.60
2019-04-05T23:20:17.725Z,78.27
2019-04-05T23:22:47.461Z,75.70
2019-04-05T23:25:22.326Z,75.57
2019-04-05T23:27:49.115Z,72.70
2019-04-05T23:30:19.467Z,70.70
2019-04-05T23:32:49.303Z,74.27
2019-04-05T23:35:19.332Z,69.97
2019-04-05T23:37:49.289Z,72.97
2019-04-05T23:40:18.836Z,67.43
2019-04-05T23:42:49.958Z,69.57
2019-04-05T23:45:19.755Z,69.80
2019-04-05T23:47:49.361Z,72.07
2019-04-05T23:50:18.971Z,69.53
2019-04-05T23:52:48.515Z,64.37
2019-04-05T23:55:18.340Z,74.57
2019-04-05T23:57:48.188Z,68.17
